Pahrump, Nevada Weather observations

Data are for observation ending at time listed.
 Day   Time    Ave.   Ave.  Ave.  Vector   Max.   Stn.    Total    Solar   Ave.  
  of    of     Air    Rel.  Wind   Wind    Wind   Baro.  Precip.   Rad.    Soil  
Year   Day     Temp.  Hum.  Speed  Dir.    Gust   Pres.                    Temp. 
2014   (PST)    F      %     mph   deg.    mph     mb.     in.     W/m2     F   
------------------------------------------------------------------------------
 293   19:20   77.4    24    8.8   136     13.2   918.5    0.00       0    75.7
 293   19:30   77.1    24    7.1   141     10.9   918.5    0.00       0    75.6
 293   19:40   77.1    24    8.4   138     12.6   918.5    0.00       0    75.5
 293   19:50   77.0    24    6.2   144     10.0   918.5    0.00       0    75.4
 293   20:00   77.1    24    5.6   142      9.6   918.6    0.00       0    75.3
 293   20:10   76.9    24    5.4   146      8.7   918.7    0.00       0    75.3
 293   20:20   75.3    26    2.9   201      7.0   918.8    0.00       0    75.1
 293   20:30   74.8    26    4.3   161      7.2   918.8    0.00       0    75.1
 293   20:40   75.2    26    4.0   169      6.2   918.8    0.00       0    75.0
 293   20:50   76.1    25    5.7   154      9.8   918.8    0.00       0    75.0
 293   21:00   76.6    25    8.1   136     11.1   918.8    0.00       0    74.9
 293   21:10   76.5    25    7.0   139      9.6   919.0    0.00       0    74.8
 293   21:20   76.7    25    7.8   162     13.4   919.1    0.00       0    74.8
 293   21:30   76.4    25    6.7   180     11.5   919.3    0.00       0    74.7
 293   21:40   75.1    26    5.8   181     11.3   919.4    0.00       0    74.6
 293   21:50   74.0    28    7.9   169     10.4   919.4    0.00       0    74.6
 293   22:00   73.5    28    7.6   168     11.0   919.3    0.00       0    74.6
 293   22:10   73.3    28    6.3   160      9.0   919.3    0.00       0    74.5
 293   22:20   73.1    28    7.0   140     10.6   919.2    0.00       0    74.5
 293   22:30   72.6    28    8.5   137     11.2   919.2    0.00       0    74.4
 293   22:40   72.5    28    8.4   134     10.9   919.1    0.00       0    74.3
 293   22:50   73.1    27   10.5   135     14.0   919.1    0.00       0    74.3
 293   23:00   73.4    27   12.3   134     15.8   919.0    0.00       0    74.2
 293   23:10   73.4    26   11.8   134     15.6   919.0    0.00       0    74.1
 293   23:20   73.2    27   12.8   136     18.2   919.0    0.00       0    74.0
 293   23:30   73.4    26   13.0   134     16.7   919.0    0.00       0    74.0
 293   23:40   73.2    27   11.3   134     15.1   919.0    0.00       0    73.9
 293   23:50   73.1    27   10.4   135     13.8   919.0    0.00       0    73.9
 294    0:00   72.7    27    7.6   137     12.1   919.0    0.00       0    73.8
 294    0:10   72.6    27    7.7   146     10.7   919.0    0.00       0    73.8
 294    0:20   72.7    27    7.2   150     11.8   919.0    0.00       0    73.7
 294    0:30   72.8    27    6.7   150      9.8   919.1    0.00       0    73.7
 294    0:40   72.9    26    7.0   164     10.7   919.1    0.00       0    73.6
 294    0:50   72.9    26    5.9   179     12.1   919.2    0.00       0    73.6
 294    1:00   72.3    27    4.8   175     11.1   919.1    0.00       0    73.5
 294    1:10   72.0    27    8.0   169     12.1   919.1    0.00       0    73.4
 294    1:20   71.3    28    8.0   163     13.2   919.0    0.00       0    73.4
 294    1:30   71.5    27    8.0   178     10.9   919.2    0.00       0    73.3
 294    1:40   71.0    28    5.9   180     10.5   919.1    0.00       0    73.3
 294    1:50   70.6    28    5.7   170     10.4   919.1    0.00       0    73.2
 294    2:00   69.3    29    6.2   134     13.9   919.1    0.00       0    73.1
 294    2:10   69.8    29    8.2   157     13.0   919.0    0.00       0    73.1
 294    2:20   70.1    28    9.1   166     13.4   918.7    0.00       0    73.0
 294    2:30   69.4    29    9.2   154     12.3   918.4    0.00       0    72.9
 294    2:40   69.7    29   11.0   139     15.6   918.3    0.00       0    72.9
 294    2:50   69.9    29    8.3   141     14.6   918.3    0.00       0    72.8
 294    3:00   69.2    30    6.9   131     11.6   918.4    0.00       0    72.7
 294    3:10   68.6    30    7.2   149     11.4   918.3    0.00       0    72.7
 294    3:20   69.1    30    8.0   152     12.1   918.1    0.00       0    72.6
 294    3:30   69.5    29   10.0   135     13.8   918.1    0.00       0    72.5
 294    3:40   69.3    30    8.6   140     12.1   918.1    0.00       0    72.5
 294    3:50   69.5    29    6.8   142     10.7   918.2    0.00       0    72.4
 294    4:00   69.5    29    6.3   158      9.6   918.3    0.00       0    72.3
 294    4:10   69.7    29    6.3   152     10.7   918.5    0.00       0    72.3
 294    4:20   70.2    28    6.3   164     13.4   918.6    0.00       0    72.2
 294    4:30   69.7    29    6.5   174      9.0   918.6    0.00       0    72.1
 294    4:40   68.6    30    6.9   153      9.6   918.5    0.00       0    72.1
 294    4:50   68.9    29    5.9   156     10.2   918.6    0.00       0    72.0
 294    5:00   68.5    30    6.1   169     10.2   918.6    0.00       0    72.0
 294    5:10   67.3    32    7.5   162     11.6   918.5    0.00       0    71.9
 294    5:20   66.4    32    8.4   155     12.6   918.3    0.00       0    71.8
 294    5:30   66.1    33    8.6   167     12.8   918.4    0.00       0    71.8
 294    5:40   65.1    34    8.6   166     12.1   918.3    0.00       0    71.7
 294    5:50   65.0    34    9.7   140     13.4   918.2    0.00       1    71.6
 294    6:00   65.1    34    8.6   143     13.6   918.3    0.00       3    71.6
 294    6:10   65.4    33    6.3   152     10.4   918.3    0.00       6    71.5
 294    6:20   65.4    33    5.9   164      8.8   918.6    0.00      11    71.4
 294    6:30   66.0    33    5.9   170      9.0   918.6    0.00      33    71.3
 294    6:40   66.4    33    4.4   198      7.5   918.9    0.00      59    71.2
 294    6:50   66.4    33    5.4   200      9.4   919.2    0.00      98    71.2
 294    7:00   66.6    32    6.9   166     10.2   919.4    0.00     138    71.1
 294    7:10   67.6    31    6.4   153     10.7   919.6    0.00     173    71.1
 294    7:20   68.8    30    8.7   160     13.0   919.8    0.00     207    71.1
 294    7:30   69.5    30   10.2   173     15.8   920.1    0.00     241    71.1
 294    7:40   70.3    29   10.4   167     15.1   920.2    0.00     275    71.1
 294    7:50   71.2    28   10.4   168     16.4   920.3    0.00     311    71.1
 294    8:00   71.9    28    9.4   148     15.9   920.5    0.00     345    71.2
 294    8:10   72.2    28   10.7   143     17.9   920.8    0.00     378    71.3
 294    8:20   72.7    27    9.8   150     17.8   920.8    0.00     411    71.3
 294    8:30   73.1    26    9.7   158     15.1   920.9    0.00     443    71.4
 294    8:40   73.4    26    9.6   166     16.0   921.0    0.00     474    71.5
 294    8:50   73.5    25    9.3   167     14.5   921.3    0.00     504    71.7
 294    9:00   73.5    25    9.8   179     15.7   921.5    0.00     532    71.8
 294    9:10   73.3    25    8.7   178     13.5   921.6    0.00     560    71.9
 294    9:20   74.2    24    5.8   195     11.8   921.6    0.00     583    72.0
 294    9:30   74.4    24    7.6   180     11.0   921.7    0.00     607    72.1
 294    9:40   74.9    23    8.1   177     12.9   921.6    0.00     630    72.2
 294    9:50   74.8    23    9.3   178     14.8   921.6    0.00     653    72.2
 294   10:00   75.3    23    7.7   184     12.6   921.6    0.00     347    72.3
 294   10:10   76.2    22    6.1   182     10.8   921.7    0.00      40    72.4
 294   10:20   75.8    22    6.7   193     12.3   921.8    0.00     189    72.4
 294   10:30   76.3    21    5.6   190     10.4   921.8    0.00     680    72.4
 294   10:40   77.0    21    4.6   204      9.6   921.8    0.00     731    72.5
 294   10:50   77.4    21    5.1   174     10.2   921.9    0.00     692    72.6
 294   11:00   77.1    20    5.4   170      9.9   922.1    0.00     741    72.7
 294   11:10   77.6    20    4.8   175      8.3   922.0    0.00     744    72.9
 294   11:20   79.2    18    2.1   255      6.6   921.9    0.00     759    73.1
 294   11:30   79.0    16    4.7   158      8.8   921.8    0.00     783    73.5
 294   11:40   78.6    15    4.3   159     11.4   921.7    0.00     701    74.0
 294   11:50   79.3    14    4.7   158      9.9   921.5    0.00     778    74.6
 294   12:00   79.4    14    6.5   148     10.0   921.2    0.00     770    75.1
 294   12:10   79.4    14    6.6   185     15.3   921.1    0.00     752    75.6
 294   12:20   79.2    13    7.7   145     14.5   920.9    0.00     757    76.2
 294   12:30   79.4    14    7.5   166     13.6   920.8    0.00     741    76.7
 294   12:40   79.7    13    5.9   181     10.4   920.6    0.00     726    77.1
 294   12:50   80.0    13    5.8   173     11.5   920.4    0.00     705    77.5
 294   13:00   79.6    13    5.7   187      9.6   920.1    0.00     680    77.8
 294   13:10   80.6    13    4.7   190     11.2   919.9    0.00     688    78.2
 294   13:20   80.1    13    5.4   170     11.5   919.6    0.00     437    78.4
 294   13:30   79.9    13    8.3   175     13.4   919.3    0.00     602    78.5
 294   13:40   79.8    12    4.2   204     10.2   919.2    0.00     556    78.5
 294   13:50   80.4    12    3.4   211      7.2   919.2    0.00     559    78.4
 294   14:00   81.0    13    3.7   216      7.8   919.2    0.00     612    78.3
 294   14:10   80.8    13    3.2   225      9.0   919.3    0.00     585    78.2
 294   14:20   80.8    12    4.2   234     10.2   919.2    0.00     543    78.0
 294   14:30   81.0    12    4.4   265      9.7   919.2    0.00     521    78.0
 294   14:40   80.4    12    3.4   278      9.4   919.1    0.00     487    77.8
 294   14:50   80.3    12    3.2   286      9.3   919.0    0.00     427    77.7
 294   15:00   79.6    17    4.0   284      8.8   918.9    0.00     413    77.5
 294   15:10   79.4    17    2.8   277      7.0   918.9    0.00     173    77.4
 294   15:20   79.4    17    3.0   279      8.5   918.8    0.00      47    77.2
 294   15:30   78.7    17    4.2   299      7.3   918.7    0.00      41    77.1
 294   15:40   78.4    18    5.8   310      9.1   918.7    0.00      37    76.9
 294   15:50   78.2    18    3.3   303      7.7   918.7    0.00      37    76.8
 294   16:00   78.0    17    4.1   297      9.4   918.6    0.00      41    76.7
 294   16:10   77.7    17    4.3   298      8.4   918.5    0.00      48    76.5
 294   16:20   77.6    17    2.1   287      6.7   918.5    0.00      41    76.4
 294   16:30   77.2    17    2.5   288      6.7   918.5    0.00      40    76.3
 294   16:40   76.6    18    2.4   292      6.2   918.5    0.00      33    76.2
 294   16:50   75.5    19    2.1   299      4.2   918.4    0.00      22    76.0
 294   17:00   74.7    18    0.8   298      2.3   918.3    0.00      13    75.9
 294   17:10   73.7    19    0.7   308      1.9   918.3    0.00       4    75.8
 294   17:20   72.6    18    0.2   279      2.6   918.2    0.00       3    75.7
 294   17:30   71.6    17    0.0   256      0.7   918.2    0.00       1    75.6
 294   17:40   70.7    17    0.1   275      0.9   918.3    0.00       0    75.4
 294   17:50   70.5    17    0.3   281      1.8   918.2    0.00       0    75.2
 294   18:00   70.6    16    0.5   265      2.5   918.3    0.00       0    75.1
 294   18:10   71.1    16    1.5   180      2.6   918.4    0.00       0    74.9
 294   18:20   71.8    15    1.1   177      2.3   918.4    0.00       0    74.7
 294   18:30   71.5    15    1.5   171      3.1   918.5    0.00       0    74.5
 294   18:40   71.0    16    1.7   138      3.0   918.4    0.00       0    74.4
 294   18:50   70.2    16    1.5   144      2.4   918.4    0.00       0    74.2
 294   19:00   69.1    17    3.3   139      5.2   918.5    0.00       0    74.1
 294   19:10   68.5    19    4.3   114      7.1   918.4    0.00       0    73.9

Return to Pahrump, Nevada graphs page.


Western Regional Climate Center,wrcc@dri.edu